Jack northrop Field Hawthorne Municipal Airport Hawthorne US
ICAO: KHHR
IATA: HHR
Category: Medium
Scheduled Services: No

Elevation: 66 ft
TransAlt. 18000 ft.

Airport Communications:
SOCAL APP:124.3
ATIS:118.4
CTAF:121.1
SOCAL DEP:124.3
GND:125.1
HAWTHORNE RDO:122.2
TWR:121.1

KHHR Zoom In..

Runways:

(A) RW 07 length 4956 ft width 100 ft
LOC 109.10 / hdg 73

(B) RW 25 length 4956 ft width 100 ft
LOC 109.10 / hdg 253

Location; KHHR
Day. 29 / Time. 02.53 Zulu
* Altimeter: 29.96
* Temperature: 17° c. 62.6°f.
* Wind from: 260° Speed 09 kn.
Dewpoint: 13° c.
Visibility: 10 Statute Miles.
Clouds: Overcast 1000 ft.

KHHR 290253Z 26009KT 10SM OVC010 17/13 A2996 RMK AO2 SLP144 T01720133 53007


Wind From 260°
Speed 09 kn.

 
 
jpsmedia worldairports.se 2020   terms of use